createdAt,value
2024-01-22T00:00:37.285Z,0
2024-01-22T00:04:40.022Z,0.14
2024-01-22T00:06:41.856Z,0
2024-01-22T00:10:45.345Z,0.421
2024-01-22T00:14:48.388Z,0
2024-01-22T00:16:49.781Z,0
2024-01-22T00:20:52.458Z,0
2024-01-22T00:22:53.834Z,1.684
2024-01-22T00:24:55.600Z,0.421
2024-01-22T00:26:57.202Z,2.948
2024-01-22T00:33:01.727Z,2.106
2024-01-22T00:35:03.184Z,0
2024-01-22T00:39:06.823Z,0.28
2024-01-22T00:43:09.804Z,2.808
2024-01-22T00:47:13.596Z,2.106
2024-01-22T00:49:14.884Z,0.702
2024-01-22T00:53:18.429Z,0.982
2024-01-22T00:57:21.754Z,3.931
2024-01-22T00:59:22.803Z,0
2024-01-22T01:03:26.171Z,1.684
2024-01-22T01:05:27.929Z,2.106
2024-01-22T01:07:29.464Z,0.14
2024-01-22T01:09:30.700Z,0
2024-01-22T01:15:35.658Z,0.28
2024-01-22T01:21:39.593Z,0
2024-01-22T01:25:43.472Z,0
2024-01-22T01:31:48.384Z,1.544
2024-01-22T01:35:51.943Z,1.263
2024-01-22T01:39:55.408Z,2.808
2024-01-22T01:41:56.956Z,1.123
2024-01-22T01:46:00.092Z,3.931
2024-01-22T01:48:02.055Z,2.808
2024-01-22T01:50:03.873Z,2.246
2024-01-22T01:52:05.402Z,1.684
2024-01-22T01:58:10.587Z,3.229
2024-01-22T02:04:14.895Z,3.229
2024-01-22T02:08:16.989Z,0
2024-01-22T02:14:20.763Z,1.825
2024-01-22T02:18:23.178Z,0
2024-01-22T02:20:24.192Z,0
2024-01-22T02:24:26.999Z,0
2024-01-22T02:28:29.468Z,0
2024-01-22T02:30:31.019Z,0
2024-01-22T02:34:34.291Z,0
2024-01-22T02:40:38.135Z,0
2024-01-22T02:44:41.845Z,0
2024-01-22T02:46:43.044Z,0
2024-01-22T02:50:45.696Z,0
2024-01-22T02:56:50.887Z,0
2024-01-22T03:00:53.619Z,0.14
2024-01-22T03:02:54.910Z,0.28
2024-01-22T03:06:57.785Z,0
2024-01-22T03:11:00.787Z,0
2024-01-22T03:13:01.955Z,0
2024-01-22T03:17:05.658Z,0
2024-01-22T03:23:10.300Z,0
2024-01-22T03:27:12.846Z,0.982
2024-01-22T03:29:14.717Z,0.982
2024-01-22T03:33:26.980Z,2.667
2024-01-22T03:39:21.922Z,1.263
2024-01-22T03:43:24.865Z,0.702
2024-01-22T03:45:26.497Z,3.229
2024-01-22T03:49:29.053Z,0.982
2024-01-22T03:53:32.106Z,3.65
2024-01-22T03:55:33.639Z,3.369
2024-01-22T03:59:37.200Z,3.229
2024-01-22T04:05:41.548Z,2.808
2024-01-22T04:09:45.053Z,6.458
2024-01-22T04:11:46.782Z,5.335
2024-01-22T04:15:49.809Z,7.441
2024-01-22T04:21:55.391Z,6.177
2024-01-22T04:25:58.960Z,6.458
2024-01-22T04:28:00.144Z,6.318
2024-01-22T04:32:03.014Z,7.3
2024-01-22T04:36:05.689Z,4.071
2024-01-22T04:38:07.092Z,3.369
2024-01-22T04:42:10.178Z,3.51
2024-01-22T04:46:12.262Z,6.037
2024-01-22T04:48:13.982Z,5.054
2024-01-22T04:52:16.964Z,3.229
2024-01-22T04:54:18.667Z,4.212
2024-01-22T04:56:19.805Z,6.879
2024-01-22T04:58:21.361Z,2.667
2024-01-22T05:04:26.307Z,8.002
2024-01-22T05:06:27.579Z,3.931
2024-01-22T05:10:30.299Z,7.862
2024-01-22T05:14:32.615Z,8.564
2024-01-22T05:20:36.898Z,4.633
2024-01-22T05:24:48.626Z,3.65
2024-01-22T05:26:41.290Z,5.475
2024-01-22T05:30:44.653Z,5.194
2024-01-22T05:34:47.837Z,8.283
2024-01-22T05:36:49.790Z,8.002
2024-01-22T05:40:53.242Z,6.318
2024-01-22T05:46:58.154Z,4.633
2024-01-22T05:51:45.392Z,7.16
2024-01-22T05:57:50.148Z,7.722
2024-01-22T06:01:53.232Z,6.318
2024-01-22T06:03:54.991Z,5.194
2024-01-22T06:07:57.119Z,6.177
2024-01-22T06:12:00.011Z,5.054
2024-01-22T06:14:02.274Z,6.598
2024-01-22T06:18:04.422Z,9.828
2024-01-22T06:24:09.424Z,7.441
2024-01-22T06:30:14.042Z,6.879
2024-01-22T06:34:16.695Z,5.756
2024-01-22T06:40:20.682Z,7.581
2024-01-22T06:44:23.738Z,8.002
2024-01-22T06:46:25.281Z,6.458
2024-01-22T06:50:27.847Z,4.212
2024-01-22T06:54:30.914Z,9.266
2024-01-22T06:56:32.432Z,11.793
2024-01-22T07:00:35.693Z,7.02
2024-01-22T07:06:39.712Z,4.352
2024-01-22T07:10:43.050Z,5.054
2024-01-22T07:12:44.962Z,3.65
2024-01-22T07:16:48.560Z,4.352
2024-01-22T07:22:53.067Z,4.352
2024-01-22T07:26:56.112Z,4.492
2024-01-22T07:28:57.080Z,5.756
2024-01-22T07:32:59.528Z,5.335
2024-01-22T07:37:02.023Z,4.071
2024-01-22T07:39:03.918Z,4.773
2024-01-22T07:43:07.279Z,3.088
2024-01-22T07:47:10.420Z,1.263
2024-01-22T07:49:12.220Z,4.212
2024-01-22T07:53:14.655Z,5.616
2024-01-22T07:55:15.821Z,3.51
2024-01-22T07:59:18.982Z,1.544
2024-01-22T08:05:23.095Z,2.246
2024-01-22T08:11:28.087Z,3.65
2024-01-22T08:15:30.478Z,1.825
2024-01-22T08:21:35.285Z,11.232
2024-01-22T08:25:38.688Z,8.143
2024-01-22T08:29:41.644Z,9.547
2024-01-22T08:31:42.964Z,4.071
2024-01-22T08:35:45.326Z,8.564
2024-01-22T08:37:46.794Z,8.002
2024-01-22T08:39:48.412Z,7.3
2024-01-22T08:41:49.937Z,6.177
2024-01-22T08:47:54.224Z,0.702
2024-01-22T08:49:55.637Z,0.561
2024-01-22T08:53:58.725Z,1.825
2024-01-22T08:58:02.263Z,0.842
2024-01-22T09:04:07.385Z,1.123
2024-01-22T09:08:10.108Z,0.982
2024-01-22T09:10:11.408Z,5.616
2024-01-22T09:14:13.611Z,1.123
2024-01-22T09:18:16.900Z,1.404
2024-01-22T09:20:18.160Z,1.684
2024-01-22T09:24:20.842Z,5.475
2024-01-22T09:30:25.562Z,9.968
2024-01-22T09:36:30.125Z,6.318
2024-01-22T09:40:32.614Z,3.931
2024-01-22T09:46:36.797Z,11.372
2024-01-22T09:50:40.121Z,6.879
2024-01-22T09:52:41.813Z,7.16
2024-01-22T09:56:44.002Z,6.739
2024-01-22T10:00:47.319Z,5.335
2024-01-22T10:02:48.213Z,3.088
2024-01-22T10:06:50.316Z,7.16
2024-01-22T10:12:54.871Z,5.896
2024-01-22T10:16:58.120Z,8.845
2024-01-22T10:18:59.487Z,4.773
2024-01-22T10:23:01.958Z,4.914
2024-01-22T10:29:08.141Z,5.616
2024-01-22T10:33:09.831Z,5.335
2024-01-22T10:35:12.592Z,5.194
2024-01-22T10:39:13.800Z,3.51
2024-01-22T10:43:16.219Z,3.79
2024-01-22T10:45:17.930Z,5.054
2024-01-22T10:49:20.843Z,2.246
2024-01-22T10:55:25.268Z,0.842
2024-01-22T10:59:28.311Z,6.177
2024-01-22T11:01:38.475Z,4.773
2024-01-22T11:05:32.585Z,4.071
2024-01-22T11:11:35.861Z,2.386
2024-01-22T11:17:39.976Z,0.842
2024-01-22T11:21:43.019Z,1.544
2024-01-22T11:27:47.262Z,3.088
2024-01-22T11:31:50.092Z,0
2024-01-22T11:37:53.351Z,2.386
2024-01-22T11:41:56.569Z,0.842
2024-01-22T11:43:57.499Z,1.684
2024-01-22T11:48:00.079Z,1.825
2024-01-22T11:54:04.707Z,0.14
2024-01-22T12:00:09.666Z,4.773
2024-01-22T12:04:16.833Z,3.369
2024-01-22T12:10:17.651Z,3.229
2024-01-22T12:14:20.998Z,3.931
2024-01-22T12:16:22.858Z,4.914
2024-01-22T12:20:25.060Z,3.931
2024-01-22T12:26:28.135Z,2.948
2024-01-22T12:28:29.222Z,2.808
2024-01-22T12:32:31.834Z,3.79
2024-01-22T12:37:17.917Z,4.633
2024-01-22T12:41:20.328Z,3.51
2024-01-22T12:43:21.285Z,8.283
2024-01-22T12:47:23.459Z,2.386
2024-01-22T12:51:26.119Z,4.633
2024-01-22T12:53:27.069Z,9.687
2024-01-22T12:57:29.743Z,9.126
2024-01-22T13:03:33.663Z,4.773
2024-01-22T13:07:37.149Z,6.318
2024-01-22T13:09:38.541Z,8.283
2024-01-22T13:13:41.222Z,11.091
2024-01-22T13:19:44.846Z,5.475
2024-01-22T13:23:47.358Z,6.598
2024-01-22T13:25:48.136Z,6.739
2024-01-22T13:29:50.697Z,12.355
2024-01-22T13:33:53.626Z,10.53
2024-01-22T13:35:55.173Z,12.916
2024-01-22T13:39:58.177Z,11.232
2024-01-22T13:44:01.391Z,4.492
2024-01-22T13:46:02.443Z,4.633
2024-01-22T13:50:05.397Z,8.845
2024-01-22T13:52:08.083Z,11.512
2024-01-22T13:54:08.139Z,9.406
2024-01-22T13:56:09.393Z,5.335
2024-01-22T14:02:14.174Z,6.177
2024-01-22T14:08:18.669Z,5.756
2024-01-22T14:12:22.074Z,13.338
2024-01-22T14:18:25.777Z,8.143
2024-01-22T14:22:29.361Z,11.232
2024-01-22T14:28:33.181Z,7.581
2024-01-22T14:32:37.164Z,13.759
2024-01-22T14:34:37.396Z,8.424
2024-01-22T14:38:41.534Z,10.108
2024-01-22T14:44:44.261Z,8.143
2024-01-22T14:50:48.052Z,6.318
2024-01-22T14:54:51.457Z,12.495
2024-01-22T15:00:55.074Z,6.458
2024-01-22T15:04:58.248Z,8.704
2024-01-22T15:06:59.620Z,6.739
2024-01-22T15:11:02.600Z,16.005
2024-01-22T15:15:04.628Z,8.985
2024-01-22T15:17:05.568Z,13.057
2024-01-22T15:21:08.979Z,6.739
2024-01-22T15:27:21.920Z,8.564
2024-01-22T15:31:16.264Z,7.441
2024-01-22T15:33:18.026Z,9.406
2024-01-22T15:37:21.214Z,4.633
2024-01-22T15:43:26.680Z,8.704
2024-01-22T15:47:29.836Z,11.232
2024-01-22T15:49:31.257Z,10.389
2024-01-22T15:53:34.413Z,8.985
2024-01-22T15:57:38.188Z,14.461
2024-01-22T15:59:39.490Z,8.424
2024-01-22T16:03:41.960Z,19.094
2024-01-22T16:09:47.105Z,10.951
2024-01-22T16:13:49.323Z,8.424
2024-01-22T16:15:50.144Z,7.02
2024-01-22T16:19:52.683Z,10.108
2024-01-22T16:25:57.484Z,10.249
2024-01-22T16:29:59.945Z,7.3
2024-01-22T16:32:01.013Z,5.756
2024-01-22T16:36:03.965Z,2.667
2024-01-22T16:40:06.974Z,1.965
2024-01-22T16:42:08.935Z,7.862
2024-01-22T16:46:11.302Z,4.352
2024-01-22T16:52:16.255Z,1.684
2024-01-22T16:56:19.118Z,9.968
2024-01-22T16:58:20.701Z,4.633
2024-01-22T17:02:24.060Z,5.335
2024-01-22T17:08:28.060Z,5.616
2024-01-22T17:14:32.943Z,9.547
2024-01-22T17:18:35.990Z,7.581
2024-01-22T17:22:39.218Z,6.037
2024-01-22T17:24:40.501Z,6.739
2024-01-22T17:28:43.587Z,8.845
2024-01-22T17:32:46.251Z,12.495
2024-01-22T17:34:47.573Z,6.177
2024-01-22T17:38:50.523Z,10.81
2024-01-22T17:40:51.952Z,9.266
2024-01-22T17:42:53.552Z,19.094
2024-01-22T17:44:54.903Z,14.742
2024-01-22T17:50:58.601Z,12.074
2024-01-22T17:53:00.158Z,12.916
2024-01-22T17:57:03.298Z,13.899
2024-01-22T18:01:07.042Z,7.581
2024-01-22T18:07:11.272Z,3.229
2024-01-22T18:11:14.344Z,13.057
2024-01-22T18:17:19.414Z,12.776
2024-01-22T18:21:23.191Z,8.985
2024-01-22T18:23:24.521Z,7.16
2024-01-22T18:27:27.528Z,8.002
2024-01-22T18:33:42.071Z,8.704
2024-01-22T18:39:34.829Z,9.968
2024-01-22T18:43:37.893Z,11.091
2024-01-22T18:49:42.130Z,7.581
2024-01-22T18:53:45.480Z,18.813
2024-01-22T18:55:47.255Z,9.547
2024-01-22T18:59:50.257Z,14.32
2024-01-22T19:03:53.586Z,9.266
2024-01-22T19:05:55.260Z,9.547
2024-01-22T19:09:57.705Z,9.547
2024-01-22T19:16:03.042Z,11.372
2024-01-22T19:20:06.307Z,6.177
2024-01-22T19:20:50.187Z,7.862
2024-01-22T19:26:55.361Z,6.879
2024-01-22T19:30:58.060Z,5.896
2024-01-22T19:32:59.074Z,13.618
2024-01-22T19:37:10.678Z,11.512
2024-01-22T19:41:04.587Z,5.616
2024-01-22T19:43:05.811Z,13.478
2024-01-22T19:47:08.313Z,9.687
2024-01-22T19:51:11.192Z,6.037
2024-01-22T19:53:12.804Z,10.389
2024-01-22T19:57:15.917Z,9.406
2024-01-22T19:59:17.222Z,7.862
2024-01-22T20:03:19.702Z,5.756
2024-01-22T20:09:23.952Z,4.212
2024-01-22T20:15:28.583Z,10.53
2024-01-22T20:19:31.745Z,14.882
2024-01-22T20:25:35.356Z,6.458
2024-01-22T20:29:38.259Z,5.054
2024-01-22T20:33:41.361Z,4.914
2024-01-22T20:35:43.616Z,10.389
2024-01-22T20:39:45.766Z,6.739
2024-01-22T20:41:47.057Z,7.3
2024-01-22T20:45:49.784Z,7.16
2024-01-22T20:51:54.827Z,3.369
2024-01-22T20:57:59.906Z,6.598
2024-01-22T21:02:02.300Z,5.616
2024-01-22T21:08:06.908Z,4.773
2024-01-22T21:12:10.416Z,10.249
2024-01-22T21:14:11.737Z,8.564
2024-01-22T21:18:14.017Z,8.704
2024-01-22T21:22:17.235Z,3.931
2024-01-22T21:24:18.861Z,7.862
2024-01-22T21:28:22.066Z,7.441
2024-01-22T21:34:26.959Z,6.037
2024-01-22T21:40:31.118Z,9.547
2024-01-22T21:44:34.202Z,6.458
2024-01-22T21:50:38.467Z,10.53
2024-01-22T21:54:41.102Z,8.564
2024-01-22T21:56:42.979Z,10.389
2024-01-22T22:00:45.936Z,10.67
2024-01-22T22:04:48.655Z,8.002
2024-01-22T22:06:49.752Z,6.739
2024-01-22T22:10:52.918Z,8.985
2024-01-22T22:16:56.239Z,7.16
2024-01-22T22:20:58.877Z,13.338
2024-01-22T22:23:00.759Z,5.616
2024-01-22T22:27:03.321Z,14.601
2024-01-22T22:33:08.154Z,10.67
2024-01-22T22:37:10.424Z,6.598
2024-01-22T22:39:11.615Z,6.037
2024-01-22T22:43:14.837Z,7.722
2024-01-22T22:47:17.172Z,6.739
2024-01-22T22:49:18.756Z,8.143
2024-01-22T22:53:22.501Z,5.896
2024-01-22T22:57:25.601Z,11.091
2024-01-22T22:59:27.455Z,7.441
2024-01-22T23:03:30.117Z,7.862
2024-01-22T23:05:31.815Z,3.369
2024-01-22T23:07:33.069Z,7.16
2024-01-22T23:09:34.164Z,8.143
2024-01-22T23:15:37.924Z,9.406
2024-01-22T23:17:38.898Z,7.3
2024-01-22T23:21:40.939Z,7.3
2024-01-22T23:25:43.568Z,11.653
2024-01-22T23:31:48.456Z,17.409
2024-01-22T23:35:50.296Z,12.214
2024-01-22T23:37:51.572Z,14.742
2024-01-22T23:41:54.224Z,16.707
2024-01-22T23:45:57.045Z,14.882
2024-01-22T23:47:59.013Z,15.303
2024-01-22T23:52:02.160Z,14.18
2024-01-22T23:58:07.019Z,7.581
